createdAt,value
2023-04-27T00:00:28.696Z,2528.00
2023-04-27T00:01:28.694Z,2508.00
2023-04-27T00:02:28.902Z,2529.00
2023-04-27T00:03:28.868Z,2522.00
2023-04-27T00:04:28.917Z,2528.00
2023-04-27T00:05:28.814Z,2517.00
2023-04-27T00:06:28.746Z,2503.00
2023-04-27T00:07:28.808Z,2519.00
2023-04-27T00:08:28.797Z,2498.00
2023-04-27T00:09:28.818Z,2508.00
2023-04-27T00:10:28.870Z,2516.00
2023-04-27T00:11:28.902Z,2493.00
2023-04-27T00:12:28.921Z,2506.00
2023-04-27T00:13:28.938Z,2507.00
2023-04-27T00:14:28.956Z,2495.00
2023-04-27T00:15:28.953Z,2499.00
2023-04-27T00:16:29.034Z,2497.00
2023-04-27T00:17:29.009Z,2485.00
2023-04-27T00:18:29.029Z,2495.00
2023-04-27T00:19:29.022Z,2497.00
2023-04-27T00:20:29.035Z,2486.00
2023-04-27T00:21:29.025Z,2490.00
2023-04-27T00:22:29.032Z,2490.00
2023-04-27T00:23:29.042Z,2479.00
2023-04-27T00:24:29.080Z,2473.00
2023-04-27T00:25:29.054Z,2480.00
2023-04-27T00:26:29.095Z,2472.00
2023-04-27T00:27:29.113Z,2475.00
2023-04-27T00:28:29.158Z,2466.00
2023-04-27T00:29:29.189Z,2463.00
2023-04-27T00:30:29.153Z,2450.00
2023-04-27T00:31:29.242Z,2460.00
2023-04-27T00:32:29.285Z,2454.00
2023-04-27T00:33:29.217Z,2453.00
2023-04-27T00:34:29.259Z,2458.00
2023-04-27T00:35:29.267Z,2448.00
2023-04-27T00:36:29.259Z,2455.00
2023-04-27T00:37:29.331Z,2451.00
2023-04-27T00:38:29.304Z,2441.00
2023-04-27T00:39:29.291Z,2449.00
2023-04-27T00:40:29.313Z,2432.00
2023-04-27T00:41:29.366Z,2444.00
2023-04-27T00:42:29.398Z,2441.00
2023-04-27T00:43:29.379Z,2436.00
2023-04-27T00:44:29.446Z,2436.00
2023-04-27T00:45:29.426Z,2419.00
2023-04-27T00:46:29.540Z,2429.00
2023-04-27T00:47:29.515Z,2432.00
2023-04-27T00:48:29.496Z,2416.00
2023-04-27T00:49:29.466Z,2437.00
2023-04-27T00:50:29.630Z,2427.00
2023-04-27T00:51:29.492Z,2426.00
2023-04-27T00:52:29.502Z,2424.00
2023-04-27T00:53:29.501Z,2412.00
2023-04-27T00:54:29.553Z,2399.00
2023-04-27T00:55:29.554Z,2409.00
2023-04-27T00:56:29.641Z,2400.00
2023-04-27T00:57:29.601Z,2405.00
2023-04-27T00:58:29.630Z,2412.00
2023-04-27T00:59:29.623Z,2394.00
2023-04-27T01:00:29.636Z,2409.00
2023-04-27T01:01:29.709Z,2396.00
2023-04-27T01:02:29.789Z,2400.00
2023-04-27T01:03:29.793Z,2382.00
2023-04-27T01:04:29.781Z,2389.00
2023-04-27T01:05:31.929Z,2395.00
2023-04-27T01:06:29.739Z,2387.00
2023-04-27T01:07:29.709Z,2400.00
2023-04-27T01:08:29.697Z,2382.00
2023-04-27T01:09:29.656Z,2377.00
2023-04-27T01:10:29.668Z,2380.00
2023-04-27T01:11:29.669Z,2382.00
2023-04-27T01:12:29.643Z,2375.00
2023-04-27T01:13:29.619Z,2365.00
2023-04-27T01:14:29.641Z,2362.00
2023-04-27T01:15:29.628Z,2377.00
2023-04-27T01:16:29.661Z,2366.00
2023-04-27T01:17:29.638Z,2370.00
2023-04-27T01:18:29.619Z,2369.00
2023-04-27T01:19:29.600Z,2366.00
2023-04-27T01:20:29.583Z,2367.00
2023-04-27T01:21:29.592Z,2368.00
2023-04-27T01:22:29.601Z,2354.00
2023-04-27T01:23:29.587Z,2357.00
2023-04-27T01:24:29.564Z,2355.00
2023-04-27T01:25:29.569Z,2350.00
2023-04-27T01:26:29.518Z,2341.00
2023-04-27T01:27:29.548Z,2350.00
2023-04-27T01:28:29.549Z,2340.00
2023-04-27T01:29:29.559Z,2349.00
2023-04-27T01:30:29.514Z,2350.00
2023-04-27T01:31:29.517Z,2347.00
2023-04-27T01:32:29.506Z,2329.00
2023-04-27T01:33:29.491Z,2334.00
2023-04-27T01:34:29.486Z,2334.00
2023-04-27T01:35:29.508Z,2339.00
2023-04-27T01:36:29.452Z,2343.00
2023-04-27T01:37:29.476Z,2318.00
2023-04-27T01:38:29.456Z,2329.00
2023-04-27T01:39:29.451Z,2323.00
2023-04-27T01:40:29.494Z,2323.00
2023-04-27T01:41:29.483Z,2322.00
2023-04-27T01:42:29.461Z,2324.00
2023-04-27T01:43:29.429Z,2322.00
2023-04-27T01:44:29.437Z,2303.00
2023-04-27T01:45:29.396Z,2313.00
2023-04-27T01:46:29.447Z,2305.00
2023-04-27T01:47:29.439Z,2307.00
2023-04-27T01:48:29.419Z,2303.00
2023-04-27T01:49:29.369Z,2314.00
2023-04-27T01:50:29.436Z,2304.00
2023-04-27T01:51:29.379Z,2306.00
2023-04-27T01:52:29.386Z,2297.00
2023-04-27T01:53:29.370Z,2303.00
2023-04-27T01:54:29.381Z,2300.00
2023-04-27T01:55:29.362Z,2306.00
2023-04-27T01:56:29.352Z,2281.00
2023-04-27T01:57:29.381Z,2294.00
2023-04-27T01:58:29.329Z,2280.00
2023-04-27T01:59:29.319Z,2301.00
2023-04-27T02:00:29.324Z,2279.00
2023-04-27T02:01:29.337Z,2281.00
2023-04-27T02:02:29.404Z,2285.00
2023-04-27T02:03:29.446Z,2289.00
2023-04-27T02:04:29.490Z,2274.00
2023-04-27T02:05:29.269Z,2275.00
2023-04-27T02:06:29.302Z,2282.00
2023-04-27T02:07:29.295Z,2291.00
2023-04-27T02:08:29.251Z,2267.00
2023-04-27T02:09:29.264Z,2270.00
2023-04-27T02:10:29.254Z,2266.00
2023-04-27T02:11:29.251Z,2270.00
2023-04-27T02:12:29.221Z,2256.00
2023-04-27T02:13:29.217Z,2264.00
2023-04-27T02:14:29.225Z,2259.00
2023-04-27T02:15:29.225Z,2240.00
2023-04-27T02:16:29.204Z,2266.00
2023-04-27T02:17:29.216Z,2257.00
2023-04-27T02:18:29.198Z,2247.00
2023-04-27T02:19:29.165Z,2250.00
2023-04-27T02:20:29.165Z,2251.00
2023-04-27T02:21:29.132Z,2242.00
2023-04-27T02:22:29.141Z,2237.00
2023-04-27T02:23:29.146Z,2243.00
2023-04-27T02:24:29.132Z,2234.00
2023-04-27T02:25:29.165Z,2232.00
2023-04-27T02:26:29.134Z,2236.00
2023-04-27T02:27:29.132Z,2231.00
2023-04-27T02:28:29.115Z,2238.00
2023-04-27T02:29:29.112Z,2207.00
2023-04-27T02:30:29.063Z,2224.00
2023-04-27T02:31:29.115Z,2221.00
2023-04-27T02:32:29.114Z,2222.00
2023-04-27T02:33:29.083Z,2225.00
2023-04-27T02:34:29.170Z,2223.00
2023-04-27T02:35:29.063Z,2211.00
2023-04-27T02:36:29.079Z,2221.00
2023-04-27T02:37:29.049Z,2215.00
2023-04-27T02:38:29.018Z,2217.00
2023-04-27T02:39:29.026Z,2207.00
2023-04-27T02:40:29.054Z,2205.00
2023-04-27T02:41:29.058Z,2217.00
2023-04-27T02:42:29.067Z,2204.00
2023-04-27T02:43:29.063Z,2204.00
2023-04-27T02:44:29.086Z,2210.00
2023-04-27T02:45:29.085Z,2205.00
2023-04-27T02:46:29.107Z,2203.00
2023-04-27T02:47:29.198Z,2202.00
2023-04-27T02:48:29.145Z,2205.00
2023-04-27T02:49:29.171Z,2193.00
2023-04-27T02:50:29.186Z,2186.00
2023-04-27T02:51:29.191Z,2200.00
2023-04-27T02:52:29.196Z,2197.00
2023-04-27T02:53:29.229Z,2195.00
2023-04-27T02:54:29.223Z,2189.00
2023-04-27T02:55:29.236Z,2188.00
2023-04-27T02:56:29.252Z,2192.00
2023-04-27T02:57:29.269Z,2185.00
2023-04-27T02:58:29.284Z,2187.00
2023-04-27T02:59:29.313Z,2187.00
2023-04-27T03:00:29.269Z,2173.00
2023-04-27T03:01:29.317Z,2175.00
2023-04-27T03:02:29.399Z,2168.00
2023-04-27T03:03:29.451Z,2173.00
2023-04-27T03:04:29.369Z,2163.00
2023-04-27T03:05:29.401Z,2165.00
2023-04-27T03:06:29.384Z,2160.00
2023-04-27T03:07:29.417Z,2155.00
2023-04-27T03:08:29.400Z,2159.00
2023-04-27T03:09:29.417Z,2164.00
2023-04-27T03:10:29.479Z,2159.00
2023-04-27T03:11:29.477Z,2163.00
2023-04-27T03:12:29.525Z,2152.00
2023-04-27T03:13:29.507Z,2152.00
2023-04-27T03:14:29.539Z,2153.00
2023-04-27T03:15:29.556Z,2151.00
2023-04-27T03:16:29.621Z,2147.00
2023-04-27T03:17:29.621Z,2140.00
2023-04-27T03:18:29.615Z,2146.00
2023-04-27T03:19:29.625Z,2130.00
2023-04-27T03:20:29.632Z,2133.00
2023-04-27T03:21:29.640Z,2138.00
2023-04-27T03:22:29.642Z,2139.00
2023-04-27T03:23:29.690Z,2132.00
2023-04-27T03:24:29.709Z,2134.00
2023-04-27T03:25:29.701Z,2119.00
2023-04-27T03:26:29.730Z,2130.00
2023-04-27T03:27:29.740Z,2110.00
2023-04-27T03:28:29.741Z,2119.00
2023-04-27T03:29:29.780Z,2119.00
2023-04-27T03:30:29.835Z,2126.00
2023-04-27T03:31:29.798Z,2122.00
2023-04-27T03:32:29.875Z,2109.00
2023-04-27T03:33:29.862Z,2108.00
2023-04-27T03:34:29.856Z,2105.00
2023-04-27T03:35:29.874Z,2105.00
2023-04-27T03:36:29.879Z,2106.00
2023-04-27T03:37:29.900Z,2111.00
2023-04-27T03:38:29.878Z,2102.00
2023-04-27T03:39:29.927Z,2106.00
2023-04-27T03:40:29.937Z,2106.00
2023-04-27T03:41:29.947Z,2091.00
2023-04-27T03:42:29.967Z,2090.00
2023-04-27T03:43:29.951Z,2096.00
2023-04-27T03:44:29.967Z,2096.00
2023-04-27T03:45:29.980Z,2095.00
2023-04-27T03:46:30.102Z,2093.00
2023-04-27T03:47:30.073Z,2101.00
2023-04-27T03:48:30.027Z,2087.00
2023-04-27T03:49:30.048Z,2090.00
2023-04-27T03:50:30.407Z,2072.00
2023-04-27T03:51:30.086Z,2070.00
2023-04-27T03:52:30.131Z,2083.00
2023-04-27T03:53:30.105Z,2081.00
2023-04-27T03:54:30.161Z,2080.00
2023-04-27T03:55:30.212Z,2075.00
2023-04-27T03:56:30.196Z,2083.00
2023-04-27T03:57:30.215Z,2082.00
2023-04-27T03:58:30.267Z,2074.00
2023-04-27T03:59:30.252Z,2067.00
2023-04-27T04:00:30.270Z,2071.00
2023-04-27T04:01:30.253Z,2072.00
2023-04-27T04:02:30.379Z,2060.00
2023-04-27T04:03:30.412Z,2060.00
2023-04-27T04:04:30.493Z,2051.00
2023-04-27T04:05:30.306Z,2066.00
2023-04-27T04:06:30.322Z,2059.00
2023-04-27T04:07:30.349Z,2066.00
2023-04-27T04:08:30.303Z,2050.00
2023-04-27T04:09:30.336Z,2045.00
2023-04-27T04:10:30.336Z,2045.00
2023-04-27T04:11:30.344Z,2042.00
2023-04-27T04:12:30.347Z,2063.00
2023-04-27T04:13:30.372Z,2049.00
2023-04-27T04:14:30.386Z,2042.00
2023-04-27T04:15:30.387Z,2039.00
2023-04-27T04:16:30.417Z,2029.00
2023-04-27T04:17:30.424Z,2030.00
2023-04-27T04:18:30.406Z,2036.00
2023-04-27T04:19:30.426Z,2033.00
2023-04-27T04:20:30.413Z,2038.00
2023-04-27T04:21:30.413Z,2036.00
2023-04-27T04:22:30.414Z,2042.00
2023-04-27T04:23:30.428Z,2038.00
2023-04-27T04:24:30.429Z,2028.00
2023-04-27T04:25:30.450Z,2034.00
2023-04-27T04:26:30.461Z,2021.00
2023-04-27T04:27:30.464Z,2023.00
2023-04-27T04:28:30.452Z,2019.00
2023-04-27T04:29:30.466Z,2011.00
2023-04-27T04:30:30.497Z,2016.00
2023-04-27T04:31:30.532Z,2009.00
2023-04-27T04:32:30.532Z,2007.00
2023-04-27T04:33:30.486Z,2014.00
2023-04-27T04:34:30.501Z,2005.00
2023-04-27T04:35:30.517Z,2012.00
2023-04-27T04:36:30.496Z,2010.00
2023-04-27T04:37:30.514Z,1991.00
2023-04-27T04:38:30.512Z,2005.00
2023-04-27T04:39:30.532Z,2001.00
2023-04-27T04:40:30.518Z,2000.00
2023-04-27T04:41:30.506Z,2003.00
2023-04-27T04:42:30.559Z,1992.00
2023-04-27T04:43:30.584Z,1988.00
2023-04-27T04:44:30.564Z,2003.00
2023-04-27T04:45:30.617Z,1995.00
2023-04-27T04:46:30.662Z,2001.00
2023-04-27T04:47:30.710Z,1995.00
2023-04-27T04:48:30.609Z,1994.00
2023-04-27T04:49:30.641Z,2017.00
2023-04-27T04:50:30.639Z,2015.00
2023-04-27T04:51:30.643Z,2018.00
2023-04-27T04:52:30.632Z,2022.00
2023-04-27T04:53:30.663Z,2027.00
2023-04-27T04:54:30.691Z,2019.00
2023-04-27T04:55:30.628Z,2011.00
2023-04-27T04:56:30.624Z,2012.00
2023-04-27T04:57:30.605Z,2011.00
2023-04-27T04:58:30.642Z,2000.00
2023-04-27T04:59:32.017Z,2013.00
2023-04-27T05:00:30.590Z,2007.00
2023-04-27T05:01:30.608Z,2023.00
2023-04-27T05:02:30.730Z,2012.00
2023-04-27T05:03:30.683Z,2005.00
2023-04-27T05:04:30.722Z,2014.00
2023-04-27T05:05:30.613Z,2006.00
2023-04-27T05:06:30.603Z,2008.00
2023-04-27T05:07:30.627Z,2000.00
2023-04-27T05:08:30.620Z,2003.00
2023-04-27T05:09:30.578Z,2009.00
2023-04-27T05:10:30.608Z,2024.00
2023-04-27T05:11:30.608Z,2007.00
2023-04-27T05:12:30.584Z,2003.00
2023-04-27T05:13:30.583Z,2001.00
2023-04-27T05:14:30.610Z,2009.00
2023-04-27T05:15:30.580Z,1998.00
2023-04-27T05:16:30.649Z,2006.00
2023-04-27T05:17:30.667Z,2002.00
2023-04-27T05:18:30.638Z,2014.00
2023-04-27T05:19:30.675Z,2010.00
2023-04-27T05:20:30.626Z,2012.00
2023-04-27T05:21:30.679Z,2010.00
2023-04-27T05:22:30.697Z,2009.00
2023-04-27T05:23:30.688Z,2003.00
2023-04-27T05:24:30.714Z,2013.00
2023-04-27T05:25:30.695Z,2005.00
2023-04-27T05:26:30.730Z,1998.00
2023-04-27T05:27:30.751Z,2009.00
2023-04-27T05:28:30.733Z,2011.00
2023-04-27T05:29:30.746Z,2006.00
2023-04-27T05:30:30.769Z,2001.00
2023-04-27T05:31:30.784Z,1999.00
2023-04-27T05:32:30.806Z,2008.00
2023-04-27T05:33:30.796Z,2007.00
2023-04-27T05:34:30.799Z,2016.00
2023-04-27T05:35:30.813Z,2016.00
2023-04-27T05:36:30.794Z,2001.00
2023-04-27T05:37:30.895Z,2019.00
2023-04-27T05:38:30.827Z,2035.00
2023-04-27T05:39:30.841Z,2026.00
2023-04-27T05:40:30.800Z,2034.00
2023-04-27T05:41:30.788Z,2057.00
2023-04-27T05:42:31.034Z,2084.00
2023-04-27T05:43:30.800Z,2099.00
2023-04-27T05:44:30.788Z,2110.00
2023-04-27T05:45:30.842Z,2148.00
2023-04-27T05:46:30.807Z,2130.00
2023-04-27T05:47:30.850Z,2153.00
2023-04-27T05:48:30.756Z,2440.00
2023-04-27T05:49:30.805Z,2455.00
2023-04-27T05:50:30.815Z,2410.00
2023-04-27T05:51:30.856Z,2485.00
2023-04-27T05:52:31.223Z,2550.00
2023-04-27T05:53:30.897Z,2518.00
2023-04-27T05:54:30.943Z,2547.00
2023-04-27T05:55:30.972Z,2610.00
2023-04-27T05:56:30.992Z,2625.00
2023-04-27T05:57:31.047Z,2630.00
2023-04-27T05:58:31.062Z,2683.00
2023-04-27T05:59:31.095Z,2665.00
2023-04-27T06:00:31.113Z,2689.00
2023-04-27T06:01:31.195Z,2610.00
2023-04-27T06:02:31.290Z,2593.00
2023-04-27T06:03:31.330Z,2574.00
2023-04-27T06:04:31.261Z,2583.00
2023-04-27T06:05:31.404Z,2578.00
2023-04-27T06:06:31.230Z,2581.00
2023-04-27T06:07:31.302Z,2558.00
2023-04-27T06:08:31.275Z,2569.00
2023-04-27T06:09:31.305Z,2566.00
2023-04-27T06:10:31.401Z,2578.00
2023-04-27T06:11:31.333Z,2572.00
2023-04-27T06:12:31.308Z,2570.00
2023-04-27T06:13:31.333Z,2550.00
2023-04-27T06:14:31.320Z,2545.00
2023-04-27T06:15:31.364Z,2540.00
2023-04-27T06:16:31.524Z,2551.00
2023-04-27T06:17:31.419Z,2540.00
2023-04-27T06:18:31.391Z,2524.00
2023-04-27T06:19:31.468Z,2555.00
2023-04-27T06:20:31.391Z,2570.00
2023-04-27T06:21:31.435Z,2545.00
2023-04-27T06:22:31.440Z,2545.00
2023-04-27T06:23:31.458Z,2528.00
2023-04-27T06:24:31.502Z,2536.00
2023-04-27T06:25:31.496Z,2524.00
2023-04-27T06:26:31.523Z,2523.00
2023-04-27T06:27:31.501Z,2531.00
2023-04-27T06:28:31.552Z,2561.00
2023-04-27T06:29:31.547Z,2546.00
2023-04-27T06:30:31.551Z,2498.00
2023-04-27T06:31:31.595Z,2515.00
2023-04-27T06:32:31.573Z,2517.00
2023-04-27T06:33:31.544Z,2532.00
2023-04-27T06:34:31.540Z,2554.00
2023-04-27T06:35:31.563Z,2564.00
2023-04-27T06:36:31.532Z,2582.00
2023-04-27T06:37:31.561Z,2570.00
2023-04-27T06:38:31.539Z,2581.00
2023-04-27T06:39:31.566Z,2570.00
2023-04-27T06:40:31.557Z,2569.00
2023-04-27T06:41:31.573Z,2581.00
2023-04-27T06:42:31.645Z,2611.00
2023-04-27T06:43:31.619Z,2627.00
2023-04-27T06:44:31.628Z,2624.00
2023-04-27T06:45:31.672Z,2534.00
2023-04-27T06:46:31.673Z,2394.00
2023-04-27T06:49:25.349Z,500.00
2023-04-27T06:50:25.156Z,500.00
2023-04-27T06:51:25.151Z,500.00
2023-04-27T06:52:25.121Z,500.00
2023-04-27T06:53:25.136Z,500.00
2023-04-27T06:54:25.110Z,520.00
2023-04-27T06:55:25.325Z,540.00
2023-04-27T06:56:25.075Z,561.00
2023-04-27T06:57:25.077Z,569.00
2023-04-27T06:58:25.232Z,576.00
2023-04-27T06:59:25.045Z,585.00
2023-04-27T07:00:25.084Z,586.00
2023-04-27T07:01:25.056Z,571.00
2023-04-27T07:02:25.682Z,597.00
2023-04-27T07:03:25.217Z,615.00
2023-04-27T07:04:25.090Z,625.00
2023-04-27T07:05:25.026Z,635.00
2023-04-27T07:06:25.032Z,639.00
2023-04-27T07:07:25.018Z,642.00
2023-04-27T07:08:25.048Z,651.00
2023-04-27T07:09:27.746Z,658.00
2023-04-27T07:10:24.995Z,659.00
2023-04-27T07:11:24.983Z,664.00
2023-04-27T07:12:24.980Z,693.00
2023-04-27T07:13:25.163Z,741.00
2023-04-27T07:14:24.964Z,815.00
2023-04-27T07:15:24.941Z,856.00
2023-04-27T07:16:24.983Z,880.00
2023-04-27T07:17:24.966Z,899.00
2023-04-27T07:18:24.931Z,913.00
2023-04-27T07:19:24.925Z,925.00
2023-04-27T07:20:24.935Z,954.00
2023-04-27T07:21:24.915Z,969.00
2023-04-27T07:22:24.887Z,990.00
2023-04-27T07:23:24.901Z,1007.00
2023-04-27T07:24:24.897Z,1012.00
2023-04-27T07:25:24.895Z,1027.00
2023-04-27T07:26:24.858Z,1051.00
2023-04-27T07:27:24.850Z,1075.00
2023-04-27T07:28:24.904Z,1097.00
2023-04-27T07:29:27.412Z,1094.00
2023-04-27T07:30:25.154Z,1096.00
2023-04-27T07:31:24.907Z,1102.00
2023-04-27T07:32:24.884Z,1114.00
2023-04-27T07:33:24.872Z,1152.00
2023-04-27T07:34:24.816Z,1195.00
2023-04-27T07:35:24.786Z,1219.00
2023-04-27T07:36:24.783Z,1227.00
2023-04-27T07:37:24.778Z,1257.00
2023-04-27T07:38:24.779Z,1284.00
2023-04-27T07:39:24.804Z,1288.00
2023-04-27T07:40:24.881Z,1310.00
2023-04-27T07:41:24.759Z,1345.00
2023-04-27T07:42:24.760Z,1387.00
2023-04-27T07:43:24.769Z,1376.00
2023-04-27T07:44:24.744Z,1383.00
2023-04-27T07:45:24.808Z,1375.00
2023-04-27T07:46:24.803Z,1393.00
2023-04-27T07:47:24.725Z,1396.00
2023-04-27T07:48:24.899Z,1406.00
2023-04-27T07:49:24.695Z,1434.00
2023-04-27T07:50:24.798Z,1424.00
2023-04-27T07:51:24.699Z,1413.00
2023-04-27T07:52:24.704Z,1406.00
2023-04-27T07:53:24.674Z,1392.00
2023-04-27T07:54:24.682Z,1381.00
2023-04-27T07:55:24.686Z,1359.00
2023-04-27T07:56:24.687Z,1341.00
2023-04-27T07:57:24.679Z,1344.00
2023-04-27T07:58:24.648Z,1357.00
2023-04-27T07:59:24.628Z,1348.00
2023-04-27T08:00:24.711Z,1331.00
2023-04-27T08:01:24.617Z,1325.00
2023-04-27T08:02:24.765Z,1316.00
2023-04-27T08:03:24.998Z,1308.00
2023-04-27T08:04:24.920Z,1301.00
2023-04-27T08:05:24.979Z,1308.00
2023-04-27T08:06:24.865Z,1281.00
2023-04-27T08:07:24.979Z,1281.00
2023-04-27T08:08:24.833Z,1286.00
2023-04-27T08:09:24.578Z,1286.00
2023-04-27T08:10:24.637Z,1274.00
2023-04-27T08:11:24.563Z,1271.00
2023-04-27T08:12:24.546Z,1271.00
2023-04-27T08:13:25.558Z,1274.00
2023-04-27T08:14:24.516Z,1266.00
2023-04-27T08:15:24.532Z,1259.00
2023-04-27T08:16:24.571Z,1260.00
2023-04-27T08:17:24.529Z,1243.00
2023-04-27T08:18:24.511Z,1247.00
2023-04-27T08:19:24.482Z,1222.00
2023-04-27T08:20:24.559Z,1222.00
2023-04-27T08:21:24.512Z,1230.00
2023-04-27T08:22:24.480Z,1216.00
2023-04-27T08:23:24.506Z,1219.00
2023-04-27T08:24:24.501Z,1223.00
2023-04-27T08:25:24.462Z,1210.00
2023-04-27T08:26:26.309Z,1204.00
2023-04-27T08:27:24.476Z,1198.00
2023-04-27T08:28:24.486Z,1207.00
2023-04-27T08:29:28.516Z,1189.00
2023-04-27T08:30:24.429Z,1191.00
2023-04-27T08:31:24.446Z,1208.00
2023-04-27T08:32:24.413Z,1224.00
2023-04-27T08:33:24.456Z,1258.00
2023-04-27T08:34:24.449Z,1303.00
2023-04-27T08:35:24.418Z,1317.00
2023-04-27T08:36:24.424Z,1296.00
2023-04-27T08:37:24.401Z,1337.00
2023-04-27T08:38:25.715Z,1334.00
2023-04-27T08:39:24.385Z,1297.00
2023-04-27T08:40:24.367Z,1065.00
2023-04-27T08:41:24.461Z,944.00
2023-04-27T08:42:24.351Z,638.00
2023-04-27T08:43:24.356Z,506.00
2023-04-27T08:44:24.354Z,488.00
2023-04-27T08:45:24.337Z,510.00
2023-04-27T08:46:24.365Z,497.00
2023-04-27T08:47:35.003Z,476.00
2023-04-27T08:48:25.343Z,477.00
2023-04-27T08:49:24.390Z,434.00
2023-04-27T08:50:24.435Z,434.00
2023-04-27T08:51:24.310Z,415.00
2023-04-27T08:52:24.317Z,400.00
2023-04-27T08:53:24.278Z,458.00
2023-04-27T08:54:24.290Z,459.00
2023-04-27T08:55:24.318Z,481.00
2023-04-27T08:56:24.281Z,590.00
2023-04-27T08:57:24.283Z,677.00
2023-04-27T08:58:24.288Z,882.00
2023-04-27T08:59:24.239Z,1010.00
2023-04-27T09:00:24.254Z,1124.00
2023-04-27T09:01:24.314Z,1188.00
2023-04-27T09:02:24.282Z,1242.00
2023-04-27T09:03:24.470Z,1293.00
2023-04-27T09:04:24.588Z,1319.00
2023-04-27T09:05:24.441Z,1348.00
2023-04-27T09:06:24.421Z,1411.00
2023-04-27T09:07:25.290Z,1473.00
2023-04-27T09:08:24.369Z,1514.00
2023-04-27T09:09:24.461Z,1608.00
2023-04-27T09:10:24.471Z,1665.00
2023-04-27T09:11:24.512Z,1709.00
2023-04-27T09:12:24.538Z,1761.00
2023-04-27T09:13:24.611Z,1766.00
2023-04-27T09:14:24.617Z,1789.00
2023-04-27T09:15:24.666Z,1804.00
2023-04-27T09:16:24.719Z,1815.00
2023-04-27T09:17:24.748Z,1835.00
2023-04-27T09:18:24.735Z,1872.00
2023-04-27T09:19:24.783Z,1910.00
2023-04-27T09:20:24.780Z,1919.00
2023-04-27T09:21:24.801Z,1949.00
2023-04-27T09:22:24.826Z,1970.00
2023-04-27T09:23:24.824Z,2002.00
2023-04-27T09:24:24.846Z,2008.00
2023-04-27T09:25:24.840Z,2045.00
2023-04-27T09:26:24.809Z,2057.00
2023-04-27T09:27:24.825Z,2071.00
2023-04-27T09:28:24.831Z,2120.00
2023-04-27T09:29:24.854Z,2134.00
2023-04-27T09:30:24.840Z,2137.00
2023-04-27T09:31:24.975Z,2155.00
2023-04-27T09:32:24.991Z,2199.00
2023-04-27T09:33:25.078Z,2218.00
2023-04-27T09:34:25.089Z,2234.00
2023-04-27T09:35:25.113Z,2253.00
2023-04-27T09:36:25.205Z,2278.00
2023-04-27T09:37:25.272Z,2287.00
2023-04-27T09:38:25.338Z,2336.00
2023-04-27T09:39:25.424Z,2335.00
2023-04-27T09:40:25.422Z,2360.00
2023-04-27T09:41:25.512Z,2365.00
2023-04-27T09:42:25.540Z,2371.00
2023-04-27T09:43:25.581Z,2384.00
2023-04-27T09:44:25.907Z,2389.00
2023-04-27T09:45:25.951Z,2382.00
2023-04-27T09:46:25.841Z,2165.00
2023-04-27T09:47:25.788Z,1984.00
2023-04-27T09:48:25.747Z,2073.00
2023-04-27T09:49:25.843Z,2177.00
2023-04-27T09:50:25.760Z,2199.00
2023-04-27T09:51:25.777Z,2174.00
2023-04-27T09:52:25.786Z,2177.00
2023-04-27T09:53:25.803Z,2159.00
2023-04-27T09:54:25.817Z,2125.00
2023-04-27T09:55:25.801Z,2084.00
2023-04-27T09:56:25.881Z,2074.00
2023-04-27T09:57:25.808Z,2054.00
2023-04-27T09:58:25.820Z,2021.00
2023-04-27T09:59:25.809Z,2004.00
2023-04-27T10:00:25.830Z,1983.00
2023-04-27T10:01:25.885Z,1894.00
2023-04-27T10:02:26.103Z,1940.00
2023-04-27T10:03:25.897Z,1917.00
2023-04-27T10:04:26.109Z,1919.00
2023-04-27T10:05:25.976Z,1876.00
2023-04-27T10:06:25.898Z,1858.00
2023-04-27T10:07:25.909Z,1855.00
2023-04-27T10:08:25.910Z,1841.00
2023-04-27T10:09:25.927Z,1798.00
2023-04-27T10:10:25.931Z,1797.00
2023-04-27T10:11:25.900Z,1815.00
2023-04-27T10:12:25.925Z,1815.00
2023-04-27T10:13:25.903Z,1809.00
2023-04-27T10:14:25.895Z,1818.00
2023-04-27T10:15:25.887Z,1810.00
2023-04-27T10:16:25.943Z,1801.00
2023-04-27T10:17:26.034Z,1814.00
2023-04-27T10:18:26.019Z,1820.00
2023-04-27T10:19:26.074Z,1814.00
2023-04-27T10:20:26.086Z,1821.00
2023-04-27T10:21:26.125Z,1826.00
2023-04-27T10:22:26.198Z,1849.00
2023-04-27T10:23:26.271Z,1852.00
2023-04-27T10:24:26.374Z,1853.00
2023-04-27T10:25:26.376Z,1871.00
2023-04-27T10:26:26.491Z,1878.00
2023-04-27T10:27:26.506Z,1883.00
2023-04-27T10:28:26.553Z,1892.00
2023-04-27T10:29:26.651Z,1875.00
2023-04-27T10:30:26.682Z,1905.00
2023-04-27T10:31:26.822Z,1913.00
2023-04-27T10:32:26.797Z,1927.00
2023-04-27T10:33:26.830Z,1945.00
2023-04-27T10:34:26.896Z,1973.00
2023-04-27T10:35:26.929Z,2003.00
2023-04-27T10:36:26.970Z,2002.00
2023-04-27T10:37:26.992Z,2025.00
2023-04-27T10:38:27.053Z,2022.00
2023-04-27T10:39:36.199Z,2011.00
2023-04-27T10:40:28.098Z,2011.00
2023-04-27T10:41:27.130Z,2010.00
2023-04-27T10:42:27.077Z,2012.00
2023-04-27T10:43:27.083Z,2009.00
2023-04-27T10:44:27.416Z,2002.00
2023-04-27T10:45:29.256Z,1987.00
2023-04-27T10:46:27.188Z,2002.00
2023-04-27T10:47:27.164Z,1982.00
2023-04-27T10:48:27.148Z,1975.00
2023-04-27T10:49:27.140Z,1968.00
2023-04-27T10:50:27.125Z,1940.00
2023-04-27T10:51:27.147Z,1932.00
2023-04-27T10:52:27.110Z,1921.00
2023-04-27T10:53:27.123Z,1907.00
2023-04-27T10:54:27.105Z,1904.00
2023-04-27T10:55:27.098Z,1903.00
2023-04-27T10:56:27.085Z,1899.00
2023-04-27T10:57:27.088Z,1893.00
2023-04-27T10:58:37.718Z,1873.00
2023-04-27T10:59:28.059Z,1874.00
2023-04-27T11:00:27.078Z,1874.00
2023-04-27T11:01:27.157Z,1866.00
2023-04-27T11:02:27.189Z,1850.00
2023-04-27T11:03:27.160Z,1841.00
2023-04-27T11:04:27.077Z,1836.00
2023-04-27T11:05:27.033Z,1823.00
2023-04-27T11:06:26.993Z,1813.00
2023-04-27T11:07:27.030Z,1810.00
2023-04-27T11:08:26.982Z,1793.00
2023-04-27T11:09:27.075Z,1793.00
2023-04-27T11:10:27.161Z,1788.00
2023-04-27T11:11:27.186Z,1784.00
2023-04-27T11:12:27.197Z,1770.00
2023-04-27T11:13:27.242Z,1758.00
2023-04-27T11:14:27.302Z,1758.00
2023-04-27T11:15:27.353Z,1751.00
2023-04-27T11:16:27.368Z,1739.00
2023-04-27T11:17:27.449Z,1743.00
2023-04-27T11:18:27.476Z,1733.00
2023-04-27T11:19:27.501Z,1727.00
2023-04-27T11:20:27.638Z,1723.00
2023-04-27T11:21:27.629Z,1717.00
2023-04-27T11:22:27.691Z,1713.00
2023-04-27T11:23:27.754Z,1705.00
2023-04-27T11:24:27.789Z,1709.00
2023-04-27T11:25:27.824Z,1695.00
2023-04-27T11:26:27.867Z,1699.00
2023-04-27T11:27:27.930Z,1691.00
2023-04-27T11:28:28.025Z,1674.00
2023-04-27T11:29:28.467Z,1681.00
2023-04-27T11:30:28.091Z,1682.00
2023-04-27T11:31:28.234Z,1669.00
2023-04-27T11:32:28.212Z,1670.00
2023-04-27T11:33:28.247Z,1673.00
2023-04-27T11:34:28.434Z,1654.00
2023-04-27T11:35:28.309Z,1647.00
2023-04-27T11:36:28.361Z,1646.00
2023-04-27T11:37:28.417Z,1646.00
2023-04-27T11:38:28.441Z,1633.00
2023-04-27T11:39:28.857Z,1644.00
2023-04-27T11:40:28.545Z,1625.00
2023-04-27T11:41:28.592Z,1629.00
2023-04-27T11:42:28.808Z,1630.00
2023-04-27T11:43:28.745Z,1619.00
2023-04-27T11:44:28.787Z,1608.00
2023-04-27T11:45:28.775Z,1620.00
2023-04-27T11:46:28.836Z,1611.00
2023-04-27T11:47:28.918Z,1594.00
2023-04-27T11:48:28.886Z,1598.00
2023-04-27T11:49:28.946Z,1594.00
2023-04-27T11:50:28.963Z,1598.00
2023-04-27T11:51:28.976Z,1594.00
2023-04-27T11:52:29.081Z,1574.00
2023-04-27T11:53:29.126Z,1580.00
2023-04-27T11:54:30.008Z,1561.00
2023-04-27T11:55:29.157Z,1559.00
2023-04-27T11:56:29.200Z,1554.00
2023-04-27T11:57:29.202Z,1552.00
2023-04-27T11:58:29.256Z,1541.00
2023-04-27T11:59:29.292Z,1544.00
2023-04-27T12:00:29.302Z,1538.00
2023-04-27T12:01:37.770Z,1539.00
2023-04-27T12:02:30.468Z,1539.00
2023-04-27T12:03:29.526Z,1540.00
2023-04-27T12:04:29.500Z,1533.00
2023-04-27T12:05:29.550Z,1535.00
2023-04-27T12:06:33.297Z,1531.00
2023-04-27T12:07:29.312Z,1538.00
2023-04-27T12:08:29.319Z,1535.00
2023-04-27T12:09:29.305Z,1539.00